createdAt,value
2019-04-20T00:01:25.785Z,15.60
2019-04-20T00:03:49.048Z,15.50
2019-04-20T00:06:17.755Z,15.50
2019-04-20T00:08:47.498Z,15.40
2019-04-20T00:11:25.078Z,15.50
2019-04-20T00:13:54.918Z,15.40
2019-04-20T00:16:16.976Z,15.40
2019-04-20T00:18:50.325Z,15.40
2019-04-20T00:21:35.314Z,15.30
2019-04-20T00:24:13.337Z,15.30
2019-04-20T00:27:10.598Z,15.20
2019-04-20T00:29:27.758Z,15.20
2019-04-20T00:31:51.010Z,15.20
2019-04-20T00:34:17.034Z,15.10
2019-04-20T00:36:39.222Z,15.00
2019-04-20T00:39:11.447Z,15.00
2019-04-20T00:41:46.500Z,15.00
2019-04-20T00:44:13.054Z,14.90
2019-04-20T00:46:51.258Z,14.90
2019-04-20T00:49:27.302Z,14.90
2019-04-20T00:52:00.495Z,14.80
2019-04-20T00:54:09.804Z,14.80
2019-04-20T00:57:11.812Z,14.80
2019-04-20T00:59:42.957Z,14.70
2019-04-20T01:02:12.698Z,14.70
2019-04-20T01:04:47.640Z,14.60
2019-04-20T01:07:13.735Z,14.60
2019-04-20T01:09:49.924Z,14.50
2019-04-20T01:12:22.947Z,14.40
2019-04-20T01:15:11.831Z,14.40
2019-04-20T01:17:41.611Z,14.40
2019-04-20T01:20:10.896Z,14.30
2019-04-20T01:22:50.998Z,14.30
2019-04-20T01:25:18.207Z,14.20
2019-04-20T01:28:01.951Z,14.20
2019-04-20T01:30:20.795Z,14.20
2019-04-20T01:32:55.389Z,14.20
2019-04-20T01:35:34.489Z,14.10
2019-04-20T01:38:00.262Z,14.10
2019-04-20T01:40:14.849Z,14.00
2019-04-20T01:42:44.572Z,13.90
2019-04-20T01:45:19.867Z,13.90
2019-04-20T01:47:47.835Z,13.80
2019-04-20T01:50:20.952Z,13.80
2019-04-20T01:52:56.536Z,13.80
2019-04-20T01:55:55.729Z,13.80
2019-04-20T01:58:22.763Z,13.70
2019-04-20T02:00:46.002Z,13.60
2019-04-20T02:03:39.469Z,13.60
2019-04-20T02:06:16.697Z,13.60
2019-04-20T02:08:44.045Z,13.50
2019-04-20T02:11:20.588Z,13.40
2019-04-20T02:13:49.816Z,13.40
2019-04-20T02:16:22.996Z,13.40
2019-04-20T02:19:03.067Z,13.30
2019-04-20T02:21:30.024Z,13.30
2019-04-20T02:23:51.525Z,13.20
2019-04-20T02:26:16.024Z,13.20
2019-04-20T02:29:14.445Z,13.10
2019-04-20T02:31:55.156Z,13.10
2019-04-20T02:34:34.047Z,13.10
2019-04-20T02:37:08.375Z,13.10
2019-04-20T02:39:37.905Z,13.00
2019-04-20T02:47:07.589Z,12.90
2019-04-20T02:52:25.028Z,12.90
2019-04-20T02:57:07.422Z,12.90
2019-04-20T02:59:54.266Z,12.80
2019-04-20T03:01:53.425Z,12.80
2019-04-20T03:04:06.748Z,12.80
2019-04-20T03:06:53.372Z,12.80
2019-04-20T03:09:32.058Z,12.70
2019-04-20T03:14:22.830Z,12.60
2019-04-20T03:16:56.665Z,12.50
2019-04-20T03:19:20.311Z,12.50
2019-04-20T03:22:03.805Z,12.50
2019-04-20T03:24:35.809Z,12.40
2019-04-20T03:26:57.042Z,12.50
2019-04-20T03:29:33.950Z,12.40
2019-04-20T03:35:03.709Z,12.40
2019-04-20T03:37:17.457Z,12.30
2019-04-20T03:39:32.448Z,12.30
2019-04-20T03:41:51.506Z,12.30
2019-04-20T03:44:20.993Z,12.30
2019-04-20T03:46:53.043Z,12.30
2019-04-20T03:49:42.316Z,12.20
2019-04-20T03:52:24.596Z,12.20
2019-04-20T03:55:15.123Z,12.20
2019-04-20T03:58:03.502Z,12.20
2019-04-20T04:00:36.515Z,12.20
2019-04-20T04:03:31.775Z,12.10
2019-04-20T04:05:48.006Z,12.10
2019-04-20T04:08:14.984Z,12.10
2019-04-20T04:10:58.496Z,12.10
2019-04-20T04:13:11.616Z,12.10
2019-04-20T04:15:48.780Z,12.10
2019-04-20T04:18:21.851Z,12.10
2019-04-20T04:20:52.177Z,12.10
2019-04-20T04:23:35.740Z,12.10
2019-04-20T04:26:05.988Z,12.10
2019-04-20T04:28:31.399Z,12.00
2019-04-20T04:31:08.361Z,12.00
2019-04-20T04:36:02.031Z,12.00
2019-04-20T04:38:40.153Z,12.00
2019-04-20T04:41:16.434Z,11.90
2019-04-20T04:43:37.140Z,11.90
2019-04-20T04:45:48.795Z,11.90
2019-04-20T04:48:25.030Z,11.90
2019-04-20T04:50:57.394Z,11.90
2019-04-20T04:53:30.270Z,11.80
2019-04-20T04:55:57.530Z,11.80
2019-04-20T04:58:19.524Z,11.80
2019-04-20T05:00:49.336Z,11.90
2019-04-20T05:03:35.361Z,11.90
2019-04-20T05:06:23.142Z,12.00
2019-04-20T05:08:42.038Z,12.00
2019-04-20T05:11:04.788Z,12.00
2019-04-20T05:13:41.838Z,12.00
2019-04-20T05:16:43.546Z,12.10
2019-04-20T05:21:47.690Z,12.10
2019-04-20T05:24:25.559Z,12.10
2019-04-20T05:27:14.694Z,12.20
2019-04-20T05:29:25.449Z,12.30
2019-04-20T05:31:57.186Z,12.30
2019-04-20T05:34:45.404Z,12.40
2019-04-20T05:37:24.017Z,12.40
2019-04-20T05:39:44.491Z,12.50
2019-04-20T05:42:12.685Z,12.60
2019-04-20T05:44:46.013Z,12.70
2019-04-20T05:47:13.644Z,12.70
2019-04-20T05:49:44.023Z,12.80
2019-04-20T05:52:24.142Z,13.00
2019-04-20T05:54:46.036Z,13.10
2019-04-20T05:57:21.099Z,13.30
2019-04-20T05:59:51.661Z,13.40
2019-04-20T06:02:17.002Z,13.40
2019-04-20T06:07:15.291Z,13.70
2019-04-20T06:09:48.159Z,13.90
2019-04-20T06:15:01.450Z,14.20
2019-04-20T06:17:55.395Z,14.30
2019-04-20T06:20:33.874Z,14.50
2019-04-20T06:23:09.488Z,14.60
2019-04-20T06:25:50.852Z,14.70
2019-04-20T06:28:11.112Z,14.80
2019-04-20T06:30:38.098Z,15.10
2019-04-20T06:34:00.484Z,15.30
2019-04-20T06:38:55.794Z,15.70
2019-04-20T06:41:38.939Z,16.00
2019-04-20T06:43:54.011Z,16.10
2019-04-20T06:46:21.829Z,16.30
2019-04-20T06:48:53.853Z,16.40
2019-04-20T06:51:27.697Z,16.60
2019-04-20T06:54:07.268Z,16.90
2019-04-20T06:56:54.240Z,17.00
2019-04-20T06:59:29.070Z,17.20
2019-04-20T07:02:17.278Z,17.50
2019-04-20T07:07:02.364Z,17.80
2019-04-20T07:09:42.067Z,18.10
2019-04-20T07:11:58.302Z,18.20
2019-04-20T07:14:25.907Z,18.40
2019-04-20T07:17:31.697Z,18.60
2019-04-20T07:19:50.213Z,18.90
2019-04-20T07:25:01.144Z,19.40
2019-04-20T07:27:30.725Z,19.50
2019-04-20T07:30:03.501Z,19.80
2019-04-20T07:32:38.717Z,20.10
2019-04-20T07:35:01.440Z,20.10
2019-04-20T07:38:04.629Z,20.10
2019-04-20T07:40:11.611Z,20.40
2019-04-20T07:42:56.525Z,20.60
2019-04-20T07:45:16.995Z,20.80
2019-04-20T07:47:46.576Z,21.00
2019-04-20T07:50:09.009Z,21.10
2019-04-20T07:52:38.722Z,21.20
2019-04-20T07:55:33.283Z,21.30
2019-04-20T07:57:45.750Z,21.50
2019-04-20T08:00:21.369Z,21.70
2019-04-20T08:03:13.139Z,21.80
2019-04-20T08:05:34.657Z,22.10
2019-04-20T08:08:08.401Z,22.20
2019-04-20T08:10:40.682Z,22.40
2019-04-20T08:13:18.256Z,22.50
2019-04-20T08:15:51.272Z,22.70
2019-04-20T08:18:19.429Z,22.80
2019-04-20T08:20:48.145Z,22.80
2019-04-20T08:23:17.547Z,23.10
2019-04-20T08:25:39.827Z,23.40
2019-04-20T08:28:01.465Z,23.70
2019-04-20T08:31:06.054Z,23.90
2019-04-20T08:33:55.482Z,23.60
2019-04-20T08:36:17.046Z,23.90
2019-04-20T08:41:18.178Z,24.20
2019-04-20T08:43:58.868Z,24.70
2019-04-20T08:46:30.724Z,25.20
2019-04-20T08:48:57.100Z,25.70
2019-04-20T08:51:25.318Z,25.60
2019-04-20T08:53:59.373Z,26.00
2019-04-20T08:56:19.722Z,26.10
2019-04-20T09:01:24.032Z,26.40
2019-04-20T09:03:58.937Z,26.30
2019-04-20T09:06:33.628Z,26.70
2019-04-20T09:09:03.372Z,26.90
2019-04-20T09:11:45.243Z,26.90
2019-04-20T09:13:58.441Z,27.10
2019-04-20T09:16:32.406Z,27.10
2019-04-20T09:19:03.631Z,27.30
2019-04-20T09:21:37.611Z,27.20
2019-04-20T09:24:24.374Z,27.50
2019-04-20T09:26:47.976Z,27.40
2019-04-20T09:29:13.956Z,27.40
2019-04-20T09:31:43.651Z,27.30
2019-04-20T09:34:39.545Z,27.30
2019-04-20T09:37:16.836Z,27.70
2019-04-20T09:39:44.954Z,28.00
2019-04-20T09:42:20.071Z,28.10
2019-04-20T09:44:55.526Z,28.10
2019-04-20T09:53:30.196Z,28.40
2019-04-20T09:56:04.651Z,28.40
2019-04-20T09:58:26.897Z,28.70
2019-04-20T10:01:31.090Z,29.00
2019-04-20T10:03:51.133Z,28.40
2019-04-20T10:06:24.787Z,28.80
2019-04-20T10:08:56.259Z,28.90
2019-04-20T10:11:23.636Z,28.90
2019-04-20T10:13:54.503Z,29.10
2019-04-20T10:16:24.096Z,29.00
2019-04-20T10:18:54.890Z,29.30
2019-04-20T10:21:25.651Z,29.70
2019-04-20T10:23:54.616Z,29.80
2019-04-20T10:26:24.778Z,29.70
2019-04-20T10:28:55.197Z,29.60
2019-04-20T10:31:24.719Z,29.80
2019-04-20T10:33:53.867Z,30.10
2019-04-20T10:36:37.588Z,30.30
2019-04-20T10:39:10.870Z,30.40
2019-04-20T10:41:48.931Z,30.50
2019-04-20T10:44:11.045Z,30.10
2019-04-20T10:46:41.246Z,30.20
2019-04-20T10:49:11.360Z,30.10
2019-04-20T10:51:41.811Z,30.40
2019-04-20T10:54:12.107Z,30.80
2019-04-20T10:56:41.494Z,30.60
2019-04-20T10:59:11.841Z,30.60
2019-04-20T11:01:40.541Z,30.80
2019-04-20T11:04:10.527Z,30.30
2019-04-20T11:06:40.585Z,30.50
2019-04-20T11:09:10.941Z,30.60
2019-04-20T11:11:40.692Z,31.00
2019-04-20T11:14:16.318Z,31.10
2019-04-20T11:16:40.329Z,31.20
2019-04-20T11:19:11.633Z,31.20
2019-04-20T11:21:40.844Z,30.60
2019-04-20T11:24:10.332Z,30.90
2019-04-20T11:26:41.628Z,30.60
2019-04-20T11:29:10.571Z,30.80
2019-04-20T11:31:59.448Z,30.50
2019-04-20T11:34:33.386Z,30.50
2019-04-20T11:36:59.306Z,30.90
2019-04-20T11:39:29.299Z,31.40
2019-04-20T11:41:59.505Z,31.40
2019-04-20T11:44:31.446Z,31.10
2019-04-20T11:47:00.848Z,31.20
2019-04-20T11:49:31.062Z,31.00
2019-04-20T11:52:01.484Z,31.30
2019-04-20T11:54:30.470Z,31.10
2019-04-20T11:57:01.468Z,31.40
2019-04-20T11:59:31.025Z,31.60
2019-04-20T12:02:06.435Z,31.60
2019-04-20T12:04:44.936Z,31.70
2019-04-20T12:12:32.192Z,31.80
2019-04-20T12:14:52.572Z,32.00
2019-04-20T12:17:21.766Z,31.90
2019-04-20T12:19:52.966Z,32.00
2019-04-20T12:22:22.335Z,32.00
2019-04-20T12:24:52.182Z,31.80
2019-04-20T12:27:21.185Z,31.60
2019-04-20T12:29:49.984Z,31.80
2019-04-20T12:32:19.681Z,32.00
2019-04-20T12:34:49.605Z,32.00
2019-04-20T12:37:18.784Z,32.10
2019-04-20T12:39:49.178Z,32.10
2019-04-20T12:42:18.977Z,31.50
2019-04-20T12:44:49.990Z,30.80
2019-04-20T12:47:19.709Z,31.20
2019-04-20T12:49:49.750Z,31.50
2019-04-20T12:52:19.163Z,31.20
2019-04-20T12:54:48.366Z,31.00
2019-04-20T12:57:18.605Z,31.00
2019-04-20T12:59:49.108Z,31.50
2019-04-20T13:02:19.822Z,31.50
2019-04-20T13:04:49.239Z,31.40
2019-04-20T13:07:19.638Z,31.50
2019-04-20T13:09:52.709Z,31.50
2019-04-20T13:12:40.686Z,31.60
2019-04-20T13:15:46.678Z,31.50
2019-04-20T13:18:17.650Z,31.40
2019-04-20T13:20:48.438Z,31.50
2019-04-20T13:23:20.201Z,31.50
2019-04-20T13:25:50.850Z,31.10
2019-04-20T13:28:21.209Z,31.20
2019-04-20T13:30:50.428Z,31.30
2019-04-20T13:33:20.182Z,31.40
2019-04-20T13:35:50.309Z,31.20
2019-04-20T13:38:20.320Z,30.60
2019-04-20T13:40:49.703Z,30.80
2019-04-20T13:43:19.745Z,31.00
2019-04-20T13:45:48.961Z,30.90
2019-04-20T13:48:17.623Z,30.80
2019-04-20T13:50:46.439Z,30.80
2019-04-20T13:53:15.244Z,30.70
2019-04-20T13:55:43.939Z,30.30
2019-04-20T13:58:14.310Z,30.10
2019-04-20T14:01:01.130Z,29.80
2019-04-20T14:03:32.246Z,30.00
2019-04-20T14:06:02.537Z,29.50
2019-04-20T14:08:33.603Z,29.40
2019-04-20T14:11:03.122Z,29.60
2019-04-20T14:13:38.124Z,29.40
2019-04-20T14:16:03.054Z,29.20
2019-04-20T14:18:33.066Z,29.00
2019-04-20T14:21:02.473Z,29.20
2019-04-20T14:23:31.178Z,29.20
2019-04-20T14:26:00.854Z,28.90
2019-04-20T14:28:29.598Z,29.00
2019-04-20T14:30:58.242Z,29.00
2019-04-20T14:33:26.829Z,28.80
2019-04-20T14:35:55.454Z,28.80
2019-04-20T14:38:26.669Z,28.80
2019-04-20T14:40:55.340Z,28.70
2019-04-20T14:43:24.926Z,28.70
2019-04-20T14:45:54.575Z,28.70
2019-04-20T14:48:24.861Z,28.70
2019-04-20T14:50:53.883Z,28.40
2019-04-20T14:53:23.269Z,28.30
2019-04-20T14:55:53.396Z,28.50
2019-04-20T14:58:43.465Z,28.40
2019-04-20T15:01:26.880Z,28.40
2019-04-20T15:03:59.846Z,28.50
2019-04-20T15:06:25.697Z,28.40
2019-04-20T15:08:54.739Z,28.40
2019-04-20T15:11:23.464Z,28.50
2019-04-20T15:13:53.081Z,28.30
2019-04-20T15:16:22.469Z,28.10
2019-04-20T15:18:59.814Z,28.00
2019-04-20T15:21:31.423Z,27.70
2019-04-20T15:24:01.810Z,27.60
2019-04-20T15:26:30.727Z,27.70
2019-04-20T15:28:59.996Z,27.60
2019-04-20T15:31:30.088Z,27.50
2019-04-20T15:33:59.100Z,27.40
2019-04-20T15:36:28.475Z,27.30
2019-04-20T15:38:57.254Z,27.20
2019-04-20T15:41:27.347Z,27.30
2019-04-20T15:43:57.321Z,27.30
2019-04-20T15:46:27.610Z,27.20
2019-04-20T15:48:57.689Z,27.10
2019-04-20T15:51:26.286Z,26.90
2019-04-20T15:53:55.598Z,26.70
2019-04-20T15:56:24.818Z,26.60
2019-04-20T15:58:56.729Z,26.70
2019-04-20T16:01:28.175Z,26.70
2019-04-20T16:04:05.538Z,26.70
2019-04-20T16:06:34.981Z,26.70
2019-04-20T16:09:06.165Z,26.70
2019-04-20T16:11:35.144Z,26.60
2019-04-20T16:14:05.271Z,26.60
2019-04-20T16:16:34.073Z,26.60
2019-04-20T16:19:03.954Z,26.50
2019-04-20T16:21:36.773Z,26.40
2019-04-20T16:24:06.539Z,26.40
2019-04-20T16:26:37.856Z,26.30
2019-04-20T16:29:08.108Z,26.30
2019-04-20T16:31:38.547Z,26.10
2019-04-20T16:34:07.686Z,26.00
2019-04-20T16:36:36.747Z,26.00
2019-04-20T16:39:09.221Z,26.00
2019-04-20T16:41:38.189Z,25.90
2019-04-20T16:47:30.147Z,25.80
2019-04-20T16:49:59.126Z,25.70
2019-04-20T16:52:28.791Z,25.70
2019-04-20T16:54:57.793Z,25.70
2019-04-20T16:57:27.692Z,25.60
2019-04-20T16:59:58.738Z,25.50
2019-04-20T17:02:26.679Z,25.50
2019-04-20T17:04:56.557Z,25.50
2019-04-20T17:07:27.082Z,25.40
2019-04-20T17:09:55.971Z,25.30
2019-04-20T17:12:25.803Z,25.20
2019-04-20T17:14:55.740Z,25.20
2019-04-20T17:17:25.330Z,25.10
2019-04-20T17:19:54.083Z,25.10
2019-04-20T17:22:23.852Z,25.00
2019-04-20T17:24:53.756Z,25.00
2019-04-20T17:27:28.769Z,24.90
2019-04-20T17:30:08.401Z,24.90
2019-04-20T17:32:39.143Z,24.80
2019-04-20T17:35:24.610Z,24.70
2019-04-20T17:37:42.804Z,24.70
2019-04-20T17:40:31.158Z,24.60
2019-04-20T17:42:50.790Z,24.50
2019-04-20T17:45:19.294Z,24.50
2019-04-20T17:47:58.494Z,24.40
2019-04-20T17:50:31.823Z,24.40
2019-04-20T17:52:59.332Z,24.30
2019-04-20T17:55:30.462Z,24.30
2019-04-20T17:57:53.228Z,24.20
2019-04-20T18:00:39.604Z,24.10
2019-04-20T18:03:20.789Z,24.00
2019-04-20T18:06:08.337Z,23.90
2019-04-20T18:08:35.600Z,23.90
2019-04-20T18:10:58.583Z,23.80
2019-04-20T18:13:22.168Z,23.70
2019-04-20T18:16:05.129Z,23.70
2019-04-20T18:18:39.090Z,23.60
2019-04-20T18:21:08.493Z,23.50
2019-04-20T18:23:41.411Z,23.40
2019-04-20T18:26:27.590Z,23.40
2019-04-20T18:29:07.838Z,23.30
2019-04-20T18:31:29.137Z,23.20
2019-04-20T18:34:00.712Z,23.10
2019-04-20T18:36:34.423Z,23.10
2019-04-20T18:39:06.226Z,23.00
2019-04-20T18:41:38.482Z,23.00
2019-04-20T18:44:01.028Z,22.90
2019-04-20T18:46:56.937Z,22.80
2019-04-20T18:49:16.755Z,22.70
2019-04-20T19:07:17.446Z,22.10
2019-04-20T19:09:46.186Z,22.10
2019-04-20T19:12:16.540Z,22.00
2019-04-20T19:14:51.004Z,22.00
2019-04-20T19:17:41.701Z,22.00
2019-04-20T19:20:07.053Z,21.80
2019-04-20T19:22:37.320Z,21.80
2019-04-20T19:25:10.028Z,21.70
2019-04-20T19:27:43.443Z,21.70
2019-04-20T19:30:23.833Z,21.60
2019-04-20T19:32:54.366Z,21.50
2019-04-20T19:35:25.943Z,21.40
2019-04-20T19:37:56.250Z,21.30
2019-04-20T19:40:28.144Z,21.30
2019-04-20T19:42:56.798Z,21.30
2019-04-20T19:45:40.997Z,21.20
2019-04-20T19:47:54.782Z,21.20
2019-04-20T19:53:14.408Z,21.10
2019-04-20T19:55:31.388Z,21.00
2019-04-20T19:57:58.560Z,21.00
2019-04-20T20:00:16.725Z,20.90
2019-04-20T20:02:45.694Z,20.80
2019-04-20T20:05:17.431Z,20.80
2019-04-20T20:07:49.386Z,20.70
2019-04-20T20:10:16.622Z,20.70
2019-04-20T20:12:51.748Z,20.70
2019-04-20T20:15:24.287Z,20.60
2019-04-20T20:18:08.546Z,20.60
2019-04-20T20:20:36.069Z,20.50
2019-04-20T20:22:50.478Z,20.50
2019-04-20T20:25:18.977Z,20.40
2019-04-20T20:27:54.357Z,20.40
2019-04-20T20:30:24.420Z,20.30
2019-04-20T20:33:05.882Z,20.30
2019-04-20T20:35:23.619Z,20.30
2019-04-20T20:37:55.677Z,20.20
2019-04-20T20:40:28.661Z,20.10
2019-04-20T20:43:02.951Z,20.10
2019-04-20T20:45:29.630Z,20.00
2019-04-20T20:48:12.094Z,20.00
2019-04-20T20:50:44.433Z,20.00
2019-04-20T20:53:00.830Z,19.90
2019-04-20T20:55:32.146Z,19.90
2019-04-20T20:58:01.061Z,19.80
2019-04-20T21:00:35.939Z,19.70
2019-04-20T21:03:00.825Z,19.60
2019-04-20T21:05:23.886Z,19.70
2019-04-20T21:07:53.437Z,19.60
2019-04-20T21:10:30.939Z,19.50
2019-04-20T21:12:57.392Z,19.40
2019-04-20T21:15:25.088Z,19.40
2019-04-20T21:18:16.348Z,19.40
2019-04-20T21:20:44.460Z,19.30
2019-04-20T21:23:07.346Z,19.20
2019-04-20T21:25:33.602Z,19.20
2019-04-20T21:27:56.942Z,19.10
2019-04-20T21:30:32.978Z,19.10
2019-04-20T21:33:00.585Z,19.10
2019-04-20T21:35:30.453Z,19.00
2019-04-20T21:38:02.390Z,19.00
2019-04-20T21:40:33.977Z,18.90
2019-04-20T21:43:00.806Z,18.80
2019-04-20T21:45:33.867Z,18.80
2019-04-20T21:48:01.322Z,18.80
2019-04-20T21:50:45.272Z,18.70
2019-04-20T21:53:06.223Z,18.70
2019-04-20T21:55:29.973Z,18.60
2019-04-20T21:58:01.350Z,18.60
2019-04-20T22:03:24.721Z,18.50
2019-04-20T22:06:02.524Z,18.50
2019-04-20T22:08:32.691Z,18.40
2019-04-20T22:11:01.907Z,18.30
2019-04-20T22:13:36.157Z,18.20
2019-04-20T22:16:05.170Z,18.20
2019-04-20T22:18:45.497Z,18.20
2019-04-20T22:21:09.473Z,18.10
2019-04-20T22:23:49.185Z,18.10
2019-04-20T22:26:14.304Z,18.10
2019-04-20T22:28:34.064Z,18.00
2019-04-20T22:31:02.658Z,17.90
2019-04-20T22:33:39.953Z,17.90
2019-04-20T22:36:09.231Z,17.80
2019-04-20T22:38:51.139Z,17.80
2019-04-20T22:41:21.267Z,17.80
2019-04-20T22:43:48.582Z,17.70
2019-04-20T22:46:23.725Z,17.70
2019-04-20T22:48:54.282Z,17.60
2019-04-20T22:51:33.053Z,17.60
2019-04-20T22:54:05.735Z,17.60
2019-04-20T22:56:35.349Z,17.50
2019-04-20T22:58:59.708Z,17.50
2019-04-20T23:01:29.847Z,17.40
2019-04-20T23:03:52.614Z,17.40
2019-04-20T23:06:47.905Z,17.30
2019-04-20T23:09:14.886Z,17.30
2019-04-20T23:11:45.081Z,17.30
2019-04-20T23:14:14.369Z,17.20
2019-04-20T23:16:48.444Z,17.20
2019-04-20T23:19:14.200Z,17.10
2019-04-20T23:21:48.615Z,17.10
2019-04-20T23:24:16.283Z,17.10
2019-04-20T23:26:45.633Z,17.10
2019-04-20T23:29:15.282Z,17.00
2019-04-20T23:31:48.239Z,17.00
2019-04-20T23:34:20.146Z,16.90
2019-04-20T23:36:48.520Z,16.80
2019-04-20T23:39:15.034Z,16.80
2019-04-20T23:41:52.509Z,16.80
2019-04-20T23:44:25.179Z,16.70
2019-04-20T23:47:01.691Z,16.70
2019-04-20T23:49:38.100Z,16.60
2019-04-20T23:52:29.654Z,16.60
2019-04-20T23:54:34.014Z,16.60
2019-04-20T23:57:01.799Z,16.50
2019-04-20T23:59:39.183Z,16.40
